sensor_id;sensor_type;location;lat;lon;timestamp;pressure;altitude;pressure_sealevel;temperature;humidity
59545;BME280;45368;55.002;-1.592;2023-07-13T00:02:04;100190.08;;;13.19;69.68
59545;BME280;45368;55.002;-1.592;2023-07-13T00:04:32;100185.45;;;13.39;69.38
59545;BME280;45368;55.002;-1.592;2023-07-13T00:07:00;100185.31;;;13.83;67.83
59545;BME280;45368;55.002;-1.592;2023-07-13T00:09:27;100188.63;;;13.47;69.37
59545;BME280;45368;55.002;-1.592;2023-07-13T00:11:56;100187.15;;;13.94;68.19
59545;BME280;45368;55.002;-1.592;2023-07-13T00:14:25;100192.87;;;13.92;68.82
59545;BME280;45368;55.002;-1.592;2023-07-13T00:16:53;100192.61;;;13.20;70.44
59545;BME280;45368;55.002;-1.592;2023-07-13T00:19:21;100193.54;;;13.71;67.77
59545;BME280;45368;55.002;-1.592;2023-07-13T00:21:49;100198.55;;;13.86;67.80
59545;BME280;45368;55.002;-1.592;2023-07-13T00:24:17;100200.81;;;13.87;66.79
59545;BME280;45368;55.002;-1.592;2023-07-13T00:26:45;100201.19;;;14.09;67.04
59545;BME280;45368;55.002;-1.592;2023-07-13T00:29:13;100207.79;;;13.93;67.16
59545;BME280;45368;55.002;-1.592;2023-07-13T00:31:40;100204.86;;;13.88;66.20
59545;BME280;45368;55.002;-1.592;2023-07-13T00:34:08;100207.71;;;13.98;66.71
59545;BME280;45368;55.002;-1.592;2023-07-13T00:36:36;100206.61;;;14.05;67.37
59545;BME280;45368;55.002;-1.592;2023-07-13T00:39:03;100217.31;;;13.68;67.43
59545;BME280;45368;55.002;-1.592;2023-07-13T00:41:31;100216.42;;;13.72;67.38
59545;BME280;45368;55.002;-1.592;2023-07-13T00:43:58;100218.13;;;13.75;66.66
59545;BME280;45368;55.002;-1.592;2023-07-13T00:46:28;100222.18;;;13.55;67.36
59545;BME280;45368;55.002;-1.592;2023-07-13T00:49:00;100219.98;;;13.87;67.90
59545;BME280;45368;55.002;-1.592;2023-07-13T00:51:32;100221.71;;;12.82;70.07
59545;BME280;45368;55.002;-1.592;2023-07-13T00:54:08;100219.06;;;13.07;69.61
59545;BME280;45368;55.002;-1.592;2023-07-13T00:56:38;100217.90;;;13.78;67.48
59545;BME280;45368;55.002;-1.592;2023-07-13T00:59:07;100219.83;;;13.43;67.77
59545;BME280;45368;55.002;-1.592;2023-07-13T01:01:35;100217.68;;;14.18;66.18
59545;BME280;45368;55.002;-1.592;2023-07-13T01:04:02;100217.52;;;14.45;65.41
59545;BME280;45368;55.002;-1.592;2023-07-13T01:06:30;100223.03;;;13.94;66.43
59545;BME280;45368;55.002;-1.592;2023-07-13T01:08:59;100220.76;;;13.70;66.04
59545;BME280;45368;55.002;-1.592;2023-07-13T01:11:26;100223.04;;;13.96;64.67
59545;BME280;45368;55.002;-1.592;2023-07-13T01:13:54;100225.38;;;13.74;64.87
59545;BME280;45368;55.002;-1.592;2023-07-13T01:16:25;100225.80;;;14.43;65.09
59545;BME280;45368;55.002;-1.592;2023-07-13T01:18:53;100227.98;;;14.80;63.95
59545;BME280;45368;55.002;-1.592;2023-07-13T01:21:21;100231.36;;;13.79;64.68
59545;BME280;45368;55.002;-1.592;2023-07-13T01:23:47;100233.41;;;14.22;64.05
59545;BME280;45368;55.002;-1.592;2023-07-13T01:26:14;100236.04;;;13.99;64.08
59545;BME280;45368;55.002;-1.592;2023-07-13T01:28:42;100237.20;;;13.95;64.91
59545;BME280;45368;55.002;-1.592;2023-07-13T01:31:11;100238.14;;;13.91;64.10
59545;BME280;45368;55.002;-1.592;2023-07-13T01:33:41;100234.68;;;14.18;63.06
59545;BME280;45368;55.002;-1.592;2023-07-13T01:36:10;100235.59;;;14.83;62.29
59545;BME280;45368;55.002;-1.592;2023-07-13T01:38:37;100239.97;;;14.24;63.73
59545;BME280;45368;55.002;-1.592;2023-07-13T01:41:04;100244.18;;;14.32;63.79
59545;BME280;45368;55.002;-1.592;2023-07-13T01:43:31;100242.04;;;14.87;62.33
59545;BME280;45368;55.002;-1.592;2023-07-13T01:45:58;100243.90;;;15.10;61.08
59545;BME280;45368;55.002;-1.592;2023-07-13T01:48:25;100243.67;;;14.93;61.18
59545;BME280;45368;55.002;-1.592;2023-07-13T01:50:52;100248.46;;;13.58;65.28
59545;BME280;45368;55.002;-1.592;2023-07-13T01:53:20;100249.45;;;13.26;66.53
59545;BME280;45368;55.002;-1.592;2023-07-13T01:55:47;100254.05;;;13.73;65.08
59545;BME280;45368;55.002;-1.592;2023-07-13T01:58:14;100253.62;;;13.94;63.98
59545;BME280;45368;55.002;-1.592;2023-07-13T02:00:41;100249.79;;;13.92;63.44
59545;BME280;45368;55.002;-1.592;2023-07-13T02:03:09;100250.24;;;14.62;62.13
59545;BME280;45368;55.002;-1.592;2023-07-13T02:05:37;100249.75;;;14.89;60.82
59545;BME280;45368;55.002;-1.592;2023-07-13T02:08:04;100253.18;;;15.30;60.00
59545;BME280;45368;55.002;-1.592;2023-07-13T02:10:31;100251.12;;;14.70;60.33
59545;BME280;45368;55.002;-1.592;2023-07-13T02:12:58;100248.15;;;15.61;58.54
59545;BME280;45368;55.002;-1.592;2023-07-13T02:15:25;100254.58;;;15.66;58.68
59545;BME280;45368;55.002;-1.592;2023-07-13T02:17:53;100257.53;;;15.22;58.99
59545;BME280;45368;55.002;-1.592;2023-07-13T02:20:20;100257.05;;;13.57;63.05
59545;BME280;45368;55.002;-1.592;2023-07-13T02:22:48;100257.76;;;14.88;61.06
59545;BME280;45368;55.002;-1.592;2023-07-13T02:25:15;100253.99;;;14.84;60.90
59545;BME280;45368;55.002;-1.592;2023-07-13T02:27:43;100254.14;;;14.38;62.50
59545;BME280;45368;55.002;-1.592;2023-07-13T02:30:11;100256.18;;;14.50;60.94
59545;BME280;45368;55.002;-1.592;2023-07-13T02:32:38;100256.55;;;15.32;58.92
59545;BME280;45368;55.002;-1.592;2023-07-13T02:35:06;100255.01;;;15.19;59.10
59545;BME280;45368;55.002;-1.592;2023-07-13T02:37:34;100259.39;;;14.67;60.52
59545;BME280;45368;55.002;-1.592;2023-07-13T02:40:01;100261.54;;;14.73;60.44
59545;BME280;45368;55.002;-1.592;2023-07-13T02:42:29;100258.06;;;14.85;60.13
59545;BME280;45368;55.002;-1.592;2023-07-13T02:44:56;100259.92;;;13.89;62.59
59545;BME280;45368;55.002;-1.592;2023-07-13T02:47:23;100258.97;;;13.81;62.78
59545;BME280;45368;55.002;-1.592;2023-07-13T02:49:50;100255.09;;;14.89;60.36
59545;BME280;45368;55.002;-1.592;2023-07-13T02:52:19;100257.29;;;13.65;62.55
59545;BME280;45368;55.002;-1.592;2023-07-13T02:54:46;100258.56;;;13.62;63.18
59545;BME280;45368;55.002;-1.592;2023-07-13T02:57:13;100257.62;;;13.83;62.87
59545;BME280;45368;55.002;-1.592;2023-07-13T02:59:41;100262.40;;;13.84;63.30
59545;BME280;45368;55.002;-1.592;2023-07-13T03:02:09;100260.64;;;14.16;63.16
59545;BME280;45368;55.002;-1.592;2023-07-13T03:04:37;100264.99;;;13.93;63.27
59545;BME280;45368;55.002;-1.592;2023-07-13T03:07:05;100268.24;;;13.73;63.67
59545;BME280;45368;55.002;-1.592;2023-07-13T03:09:34;100267.64;;;13.72;63.72
59545;BME280;45368;55.002;-1.592;2023-07-13T03:12:02;100270.81;;;13.29;64.92
59545;BME280;45368;55.002;-1.592;2023-07-13T03:14:29;100267.06;;;12.87;66.08
59545;BME280;45368;55.002;-1.592;2023-07-13T03:16:56;100266.97;;;13.55;63.74
59545;BME280;45368;55.002;-1.592;2023-07-13T03:19:23;100271.28;;;12.90;65.96
59545;BME280;45368;55.002;-1.592;2023-07-13T03:21:50;100266.29;;;13.12;64.44
59545;BME280;45368;55.002;-1.592;2023-07-13T03:24:18;100271.08;;;12.92;65.48
59545;BME280;45368;55.002;-1.592;2023-07-13T03:26:46;100273.26;;;12.78;65.01
59545;BME280;45368;55.002;-1.592;2023-07-13T03:29:13;100270.00;;;13.86;62.46
59545;BME280;45368;55.002;-1.592;2023-07-13T03:31:41;100269.52;;;12.68;64.91
59545;BME280;45368;55.002;-1.592;2023-07-13T03:34:08;100269.97;;;13.42;63.87
59545;BME280;45368;55.002;-1.592;2023-07-13T03:36:36;100270.19;;;14.03;61.09
59545;BME280;45368;55.002;-1.592;2023-07-13T03:39:04;100274.83;;;13.50;62.99
59545;BME280;45368;55.002;-1.592;2023-07-13T03:41:31;100277.26;;;12.97;63.65
59545;BME280;45368;55.002;-1.592;2023-07-13T03:43:59;100276.86;;;13.67;62.20
59545;BME280;45368;55.002;-1.592;2023-07-13T03:46:26;100277.68;;;13.89;61.02
59545;BME280;45368;55.002;-1.592;2023-07-13T03:48:54;100280.26;;;13.33;63.27
59545;BME280;45368;55.002;-1.592;2023-07-13T03:51:22;100281.17;;;13.36;62.54
59545;BME280;45368;55.002;-1.592;2023-07-13T03:53:50;100280.04;;;13.44;62.25
59545;BME280;45368;55.002;-1.592;2023-07-13T03:56:18;100281.27;;;13.40;61.84
59545;BME280;45368;55.002;-1.592;2023-07-13T03:58:48;100286.27;;;13.90;60.10
59545;BME280;45368;55.002;-1.592;2023-07-13T04:01:17;100288.77;;;13.61;61.14
59545;BME280;45368;55.002;-1.592;2023-07-13T04:03:44;100292.80;;;13.76;60.01
59545;BME280;45368;55.002;-1.592;2023-07-13T04:06:16;100292.95;;;14.64;58.14
59545;BME280;45368;55.002;-1.592;2023-07-13T04:08:43;100293.87;;;14.17;58.46
59545;BME280;45368;55.002;-1.592;2023-07-13T04:11:10;100295.70;;;14.14;59.64
59545;BME280;45368;55.002;-1.592;2023-07-13T04:13:37;100298.67;;;13.21;60.43
59545;BME280;45368;55.002;-1.592;2023-07-13T04:16:04;100299.55;;;13.65;60.47
59545;BME280;45368;55.002;-1.592;2023-07-13T04:18:31;100301.04;;;13.93;59.70
59545;BME280;45368;55.002;-1.592;2023-07-13T04:20:58;100304.27;;;14.12;58.89
59545;BME280;45368;55.002;-1.592;2023-07-13T04:23:26;100304.44;;;14.29;57.48
59545;BME280;45368;55.002;-1.592;2023-07-13T04:25:53;100302.94;;;14.43;57.13
59545;BME280;45368;55.002;-1.592;2023-07-13T04:28:22;100304.04;;;14.68;57.36
59545;BME280;45368;55.002;-1.592;2023-07-13T04:30:50;100312.53;;;13.89;59.22
59545;BME280;45368;55.002;-1.592;2023-07-13T04:33:18;100311.03;;;13.08;60.45
59545;BME280;45368;55.002;-1.592;2023-07-13T04:35:46;100316.08;;;13.96;59.01
59545;BME280;45368;55.002;-1.592;2023-07-13T04:38:13;100315.23;;;14.44;58.56
59545;BME280;45368;55.002;-1.592;2023-07-13T04:40:40;100319.43;;;13.67;59.80
59545;BME280;45368;55.002;-1.592;2023-07-13T04:43:08;100318.13;;;13.42;60.32
59545;BME280;45368;55.002;-1.592;2023-07-13T04:45:35;100316.84;;;12.96;61.19
59545;BME280;45368;55.002;-1.592;2023-07-13T04:48:04;100324.85;;;13.41;60.45
59545;BME280;45368;55.002;-1.592;2023-07-13T04:50:31;100321.97;;;13.82;59.25
59545;BME280;45368;55.002;-1.592;2023-07-13T04:52:58;100324.09;;;14.58;58.10
59545;BME280;45368;55.002;-1.592;2023-07-13T04:55:25;100329.11;;;13.65;59.32
59545;BME280;45368;55.002;-1.592;2023-07-13T04:57:52;100330.91;;;13.08;60.66
59545;BME280;45368;55.002;-1.592;2023-07-13T05:00:19;100329.89;;;14.60;57.42
59545;BME280;45368;55.002;-1.592;2023-07-13T05:02:47;100330.16;;;13.38;59.49
59545;BME280;45368;55.002;-1.592;2023-07-13T05:05:14;100329.10;;;14.10;57.56
59545;BME280;45368;55.002;-1.592;2023-07-13T05:07:41;100334.40;;;12.99;61.44
59545;BME280;45368;55.002;-1.592;2023-07-13T05:10:09;100332.51;;;13.54;59.33
59545;BME280;45368;55.002;-1.592;2023-07-13T05:12:37;100334.50;;;13.76;58.67
59545;BME280;45368;55.002;-1.592;2023-07-13T05:15:06;100341.10;;;12.80;59.96
59545;BME280;45368;55.002;-1.592;2023-07-13T05:17:33;100337.36;;;13.96;57.88
59545;BME280;45368;55.002;-1.592;2023-07-13T05:20:02;100334.42;;;13.72;57.72
59545;BME280;45368;55.002;-1.592;2023-07-13T05:22:29;100336.72;;;14.20;56.87
59545;BME280;45368;55.002;-1.592;2023-07-13T05:24:56;100334.13;;;14.68;55.39
59545;BME280;45368;55.002;-1.592;2023-07-13T05:27:24;100344.67;;;13.93;58.33
59545;BME280;45368;55.002;-1.592;2023-07-13T05:29:51;100343.52;;;13.59;57.40
59545;BME280;45368;55.002;-1.592;2023-07-13T05:32:18;100340.74;;;14.94;54.85
59545;BME280;45368;55.002;-1.592;2023-07-13T05:34:46;100343.19;;;14.19;56.13
59545;BME280;45368;55.002;-1.592;2023-07-13T05:37:13;100343.21;;;14.15;56.43
59545;BME280;45368;55.002;-1.592;2023-07-13T05:39:40;100341.67;;;14.61;54.85
59545;BME280;45368;55.002;-1.592;2023-07-13T05:42:07;100347.71;;;13.94;56.55
59545;BME280;45368;55.002;-1.592;2023-07-13T05:44:35;100355.69;;;13.91;57.40
59545;BME280;45368;55.002;-1.592;2023-07-13T05:47:03;100358.43;;;13.04;58.78
59545;BME280;45368;55.002;-1.592;2023-07-13T05:49:30;100360.24;;;13.65;58.15
59545;BME280;45368;55.002;-1.592;2023-07-13T05:51:58;100362.98;;;13.51;57.62
59545;BME280;45368;55.002;-1.592;2023-07-13T05:54:25;100359.72;;;14.03;57.69
59545;BME280;45368;55.002;-1.592;2023-07-13T05:56:52;100362.31;;;13.82;57.97
59545;BME280;45368;55.002;-1.592;2023-07-13T05:59:19;100366.85;;;12.74;60.61
59545;BME280;45368;55.002;-1.592;2023-07-13T06:01:46;100370.26;;;13.40;59.16
59545;BME280;45368;55.002;-1.592;2023-07-13T06:04:14;100377.88;;;13.49;58.31
59545;BME280;45368;55.002;-1.592;2023-07-13T06:06:41;100374.43;;;13.66;58.65
59545;BME280;45368;55.002;-1.592;2023-07-13T06:09:08;100385.20;;;12.96;59.62
59545;BME280;45368;55.002;-1.592;2023-07-13T06:11:35;100382.17;;;13.82;56.38
59545;BME280;45368;55.002;-1.592;2023-07-13T06:14:03;100388.18;;;13.80;57.55
59545;BME280;45368;55.002;-1.592;2023-07-13T06:16:30;100387.61;;;14.15;57.10
59545;BME280;45368;55.002;-1.592;2023-07-13T06:18:57;100394.37;;;14.13;56.45
59545;BME280;45368;55.002;-1.592;2023-07-13T06:21:24;100399.40;;;13.76;58.26
59545;BME280;45368;55.002;-1.592;2023-07-13T06:23:52;100398.19;;;14.39;57.08
59545;BME280;45368;55.002;-1.592;2023-07-13T06:26:20;100397.85;;;14.54;56.19
59545;BME280;45368;55.002;-1.592;2023-07-13T06:28:48;100400.22;;;15.12;55.29
59545;BME280;45368;55.002;-1.592;2023-07-13T06:31:16;100400.67;;;14.35;56.90
59545;BME280;45368;55.002;-1.592;2023-07-13T06:33:44;100399.70;;;14.49;55.66
59545;BME280;45368;55.002;-1.592;2023-07-13T06:36:11;100400.48;;;15.29;54.58
59545;BME280;45368;55.002;-1.592;2023-07-13T06:38:39;100400.51;;;14.63;55.75
59545;BME280;45368;55.002;-1.592;2023-07-13T06:41:08;100402.83;;;14.80;54.67
59545;BME280;45368;55.002;-1.592;2023-07-13T06:43:35;100397.97;;;14.89;54.60
59545;BME280;45368;55.002;-1.592;2023-07-13T06:46:03;100401.92;;;14.83;54.92
59545;BME280;45368;55.002;-1.592;2023-07-13T06:48:30;100402.99;;;13.44;57.62
59545;BME280;45368;55.002;-1.592;2023-07-13T06:50:57;100400.18;;;13.99;56.23
59545;BME280;45368;55.002;-1.592;2023-07-13T06:53:24;100408.42;;;13.75;55.98
59545;BME280;45368;55.002;-1.592;2023-07-13T06:55:52;100407.71;;;14.52;54.22
59545;BME280;45368;55.002;-1.592;2023-07-13T06:58:21;100408.22;;;14.36;54.97
59545;BME280;45368;55.002;-1.592;2023-07-13T07:00:51;100417.32;;;13.84;55.56
59545;BME280;45368;55.002;-1.592;2023-07-13T07:03:19;100413.50;;;14.50;53.76
59545;BME280;45368;55.002;-1.592;2023-07-13T07:05:46;100421.71;;;15.31;53.18
59545;BME280;45368;55.002;-1.592;2023-07-13T07:08:14;100429.18;;;14.03;53.64
59545;BME280;45368;55.002;-1.592;2023-07-13T07:10:42;100430.75;;;14.34;53.87
59545;BME280;45368;55.002;-1.592;2023-07-13T07:13:09;100423.56;;;14.88;52.66
59545;BME280;45368;55.002;-1.592;2023-07-13T07:15:36;100426.67;;;14.62;52.65
59545;BME280;45368;55.002;-1.592;2023-07-13T07:18:03;100428.80;;;14.48;53.78
59545;BME280;45368;55.002;-1.592;2023-07-13T07:20:31;100429.86;;;15.19;53.64
59545;BME280;45368;55.002;-1.592;2023-07-13T07:22:59;100437.31;;;14.95;51.91
59545;BME280;45368;55.002;-1.592;2023-07-13T07:25:27;100445.36;;;14.61;53.01
59545;BME280;45368;55.002;-1.592;2023-07-13T07:27:54;100452.34;;;13.82;55.36
59545;BME280;45368;55.002;-1.592;2023-07-13T07:30:22;100448.64;;;14.07;54.13
59545;BME280;45368;55.002;-1.592;2023-07-13T07:32:49;100447.63;;;15.49;51.69
59545;BME280;45368;55.002;-1.592;2023-07-13T07:35:16;100452.08;;;14.20;55.55
59545;BME280;45368;55.002;-1.592;2023-07-13T07:37:44;100449.39;;;15.29;53.29
59545;BME280;45368;55.002;-1.592;2023-07-13T07:40:12;100448.52;;;15.44;51.69
59545;BME280;45368;55.002;-1.592;2023-07-13T07:42:39;100446.87;;;16.08;49.90
59545;BME280;45368;55.002;-1.592;2023-07-13T07:45:08;100444.21;;;17.35;47.78
59545;BME280;45368;55.002;-1.592;2023-07-13T07:47:35;100440.64;;;17.13;47.96
59545;BME280;45368;55.002;-1.592;2023-07-13T07:50:03;100447.63;;;17.21;47.77
59545;BME280;45368;55.002;-1.592;2023-07-13T07:52:30;100449.50;;;16.27;48.51
59545;BME280;45368;55.002;-1.592;2023-07-13T07:54:58;100452.02;;;16.47;48.94
59545;BME280;45368;55.002;-1.592;2023-07-13T07:57:25;100453.81;;;16.47;48.09
59545;BME280;45368;55.002;-1.592;2023-07-13T07:59:53;100454.12;;;16.94;47.51
59545;BME280;45368;55.002;-1.592;2023-07-13T08:02:20;100450.39;;;17.13;46.38
59545;BME280;45368;55.002;-1.592;2023-07-13T08:04:47;100447.24;;;18.24;45.31
59545;BME280;45368;55.002;-1.592;2023-07-13T08:07:15;100449.27;;;17.52;45.21
59545;BME280;45368;55.002;-1.592;2023-07-13T08:09:42;100447.40;;;18.24;44.85
59545;BME280;45368;55.002;-1.592;2023-07-13T08:12:10;100460.36;;;15.97;47.89
59545;BME280;45368;55.002;-1.592;2023-07-13T08:14:37;100456.97;;;16.07;48.16
59545;BME280;45368;55.002;-1.592;2023-07-13T08:17:05;100454.32;;;16.69;46.84
59545;BME280;45368;55.002;-1.592;2023-07-13T08:19:32;100454.89;;;16.99;46.90
59545;BME280;45368;55.002;-1.592;2023-07-13T08:22:00;100454.13;;;16.99;45.95
59545;BME280;45368;55.002;-1.592;2023-07-13T08:24:28;100451.86;;;17.30;46.10
59545;BME280;45368;55.002;-1.592;2023-07-13T08:26:55;100454.01;;;16.00;46.67
59545;BME280;45368;55.002;-1.592;2023-07-13T08:29:23;100456.85;;;15.30;48.81
59545;BME280;45368;55.002;-1.592;2023-07-13T08:31:51;100467.56;;;15.42;48.81
59545;BME280;45368;55.002;-1.592;2023-07-13T08:34:18;100467.37;;;15.25;49.15
59545;BME280;45368;55.002;-1.592;2023-07-13T08:36:45;100462.67;;;15.47;49.96
59545;BME280;45368;55.002;-1.592;2023-07-13T08:39:12;100458.58;;;15.13;50.19
59545;BME280;45368;55.002;-1.592;2023-07-13T08:41:40;100455.68;;;15.87;48.62
59545;BME280;45368;55.002;-1.592;2023-07-13T08:44:20;100452.05;;;16.07;48.11
59545;BME280;45368;55.002;-1.592;2023-07-13T08:46:53;100446.22;;;16.47;48.34
59545;BME280;45368;55.002;-1.592;2023-07-13T08:49:22;100450.96;;;16.99;47.37
59545;BME280;45368;55.002;-1.592;2023-07-13T08:51:53;100457.22;;;16.68;47.04
59545;BME280;45368;55.002;-1.592;2023-07-13T08:54:27;100451.70;;;16.74;45.99
59545;BME280;45368;55.002;-1.592;2023-07-13T08:56:57;100454.81;;;16.88;44.86
59545;BME280;45368;55.002;-1.592;2023-07-13T08:59:28;100461.84;;;16.78;45.26
59545;BME280;45368;55.002;-1.592;2023-07-13T09:02:10;100461.00;;;16.43;45.88
59545;BME280;45368;55.002;-1.592;2023-07-13T09:04:48;100459.20;;;17.49;44.93
59545;BME280;45368;55.002;-1.592;2023-07-13T09:07:25;100451.90;;;16.86;45.51
59545;BME280;45368;55.002;-1.592;2023-07-13T09:10:07;100449.54;;;17.58;45.48
59545;BME280;45368;55.002;-1.592;2023-07-13T09:12:49;100456.58;;;17.25;43.79
59545;BME280;45368;55.002;-1.592;2023-07-13T09:15:28;100453.58;;;17.57;43.49
59545;BME280;45368;55.002;-1.592;2023-07-13T09:17:59;100470.64;;;16.52;43.65
59545;BME280;45368;55.002;-1.592;2023-07-13T09:20:32;100471.07;;;16.82;44.50
59545;BME280;45368;55.002;-1.592;2023-07-13T09:23:07;100478.52;;;16.30;45.71
59545;BME280;45368;55.002;-1.592;2023-07-13T09:25:36;100475.03;;;16.42;46.19
59545;BME280;45368;55.002;-1.592;2023-07-13T09:28:11;100473.10;;;16.40;45.06
59545;BME280;45368;55.002;-1.592;2023-07-13T09:30:46;100478.43;;;16.56;45.55
59545;BME280;45368;55.002;-1.592;2023-07-13T09:33:16;100486.03;;;16.06;45.38
59545;BME280;45368;55.002;-1.592;2023-07-13T09:35:44;100483.40;;;16.21;45.62
59545;BME280;45368;55.002;-1.592;2023-07-13T09:38:14;100488.34;;;16.67;43.65
59545;BME280;45368;55.002;-1.592;2023-07-13T09:40:52;100484.64;;;16.77;44.39
59545;BME280;45368;55.002;-1.592;2023-07-13T09:43:22;100479.47;;;16.80;44.18
59545;BME280;45368;55.002;-1.592;2023-07-13T09:45:49;100474.79;;;18.01;42.58
59545;BME280;45368;55.002;-1.592;2023-07-13T09:48:18;100483.17;;;16.60;43.80
59545;BME280;45368;55.002;-1.592;2023-07-13T09:50:46;100487.12;;;17.03;42.91
59545;BME280;45368;55.002;-1.592;2023-07-13T09:53:15;100486.62;;;16.39;43.25
59545;BME280;45368;55.002;-1.592;2023-07-13T09:55:44;100492.63;;;16.57;44.06
59545;BME280;45368;55.002;-1.592;2023-07-13T09:58:14;100489.43;;;17.22;43.97
59545;BME280;45368;55.002;-1.592;2023-07-13T10:00:44;100496.52;;;16.57;44.54
59545;BME280;45368;55.002;-1.592;2023-07-13T10:03:21;100498.27;;;17.81;43.11
59545;BME280;45368;55.002;-1.592;2023-07-13T10:05:50;100503.82;;;17.83;43.77
59545;BME280;45368;55.002;-1.592;2023-07-13T10:08:20;100500.51;;;17.40;43.96
59545;BME280;45368;55.002;-1.592;2023-07-13T10:10:52;100510.55;;;16.60;43.14
59545;BME280;45368;55.002;-1.592;2023-07-13T10:13:26;100509.73;;;17.07;43.39
59545;BME280;45368;55.002;-1.592;2023-07-13T10:15:54;100511.48;;;17.29;42.29
59545;BME280;45368;55.002;-1.592;2023-07-13T10:18:24;100521.90;;;16.81;42.87
59545;BME280;45368;55.002;-1.592;2023-07-13T10:20:54;100518.17;;;16.94;44.07
59545;BME280;45368;55.002;-1.592;2023-07-13T10:23:28;100507.71;;;17.54;42.16
59545;BME280;45368;55.002;-1.592;2023-07-13T10:25:59;100518.89;;;17.57;41.69
59545;BME280;45368;55.002;-1.592;2023-07-13T10:28:31;100520.67;;;17.72;42.18
59545;BME280;45368;55.002;-1.592;2023-07-13T10:31:01;100517.59;;;18.01;41.04
59545;BME280;45368;55.002;-1.592;2023-07-13T10:33:29;100514.32;;;17.46;41.08
59545;BME280;45368;55.002;-1.592;2023-07-13T10:36:03;100514.77;;;18.29;39.44
59545;BME280;45368;55.002;-1.592;2023-07-13T10:38:33;100518.73;;;17.04;42.57
59545;BME280;45368;55.002;-1.592;2023-07-13T10:41:04;100517.13;;;17.01;43.23
59545;BME280;45368;55.002;-1.592;2023-07-13T10:43:35;100514.00;;;17.91;40.78
59545;BME280;45368;55.002;-1.592;2023-07-13T10:46:04;100510.42;;;18.04;40.78
59545;BME280;45368;55.002;-1.592;2023-07-13T10:48:34;100517.78;;;18.16;41.37
59545;BME280;45368;55.002;-1.592;2023-07-13T10:51:04;100525.39;;;17.86;41.70
59545;BME280;45368;55.002;-1.592;2023-07-13T10:53:34;100516.37;;;17.97;41.15
59545;BME280;45368;55.002;-1.592;2023-07-13T10:56:03;100514.67;;;18.12;41.12
59545;BME280;45368;55.002;-1.592;2023-07-13T10:58:34;100513.55;;;18.41;40.27
59545;BME280;45368;55.002;-1.592;2023-07-13T11:01:08;100525.39;;;17.37;41.27
59545;BME280;45368;55.002;-1.592;2023-07-13T11:03:37;100524.31;;;17.19;41.71
59545;BME280;45368;55.002;-1.592;2023-07-13T11:06:09;100524.27;;;17.39;41.74
59545;BME280;45368;55.002;-1.592;2023-07-13T11:08:39;100520.97;;;17.97;40.14
59545;BME280;45368;55.002;-1.592;2023-07-13T11:11:36;100515.37;;;20.45;38.45
59545;BME280;45368;55.002;-1.592;2023-07-13T11:14:14;100510.99;;;22.03;33.73
59545;BME280;45368;55.002;-1.592;2023-07-13T11:16:52;100505.83;;;23.42;30.50
59545;BME280;45368;55.002;-1.592;2023-07-13T11:19:41;100508.56;;;24.08;29.63
59545;BME280;45368;55.002;-1.592;2023-07-13T11:22:14;100508.96;;;23.15;29.05
59545;BME280;45368;55.002;-1.592;2023-07-13T11:25:00;100508.20;;;23.86;29.81
59545;BME280;45368;55.002;-1.592;2023-07-13T11:27:39;100501.45;;;26.09;27.30
59545;BME280;45368;55.002;-1.592;2023-07-13T11:30:20;100514.13;;;24.42;28.97
59545;BME280;45368;55.002;-1.592;2023-07-13T11:32:51;100520.73;;;22.62;31.76
59545;BME280;45368;55.002;-1.592;2023-07-13T11:35:29;100525.11;;;21.07;34.23
59545;BME280;45368;55.002;-1.592;2023-07-13T11:37:56;100515.94;;;20.79;33.63
59545;BME280;45368;55.002;-1.592;2023-07-13T11:40:25;100511.89;;;22.93;31.65
59545;BME280;45368;55.002;-1.592;2023-07-13T11:42:59;100513.67;;;21.86;32.83
59545;BME280;45368;55.002;-1.592;2023-07-13T11:45:27;100512.94;;;22.43;31.92
59545;BME280;45368;55.002;-1.592;2023-07-13T11:47:55;100512.85;;;22.14;31.90
59545;BME280;45368;55.002;-1.592;2023-07-13T11:50:24;100521.44;;;22.62;32.26
59545;BME280;45368;55.002;-1.592;2023-07-13T11:52:53;100523.49;;;21.11;33.00
59545;BME280;45368;55.002;-1.592;2023-07-13T11:55:22;100527.45;;;20.35;35.31
59545;BME280;45368;55.002;-1.592;2023-07-13T11:57:51;100513.82;;;22.28;32.67
59545;BME280;45368;55.002;-1.592;2023-07-13T12:00:25;100506.48;;;23.37;30.67
59545;BME280;45368;55.002;-1.592;2023-07-13T12:02:57;100510.85;;;21.85;32.19
59545;BME280;45368;55.002;-1.592;2023-07-13T12:05:26;100508.37;;;20.23;32.79
59545;BME280;45368;55.002;-1.592;2023-07-13T12:07:54;100511.31;;;20.19;33.69
59545;BME280;45368;55.002;-1.592;2023-07-13T12:10:22;100515.69;;;19.45;35.93
59545;BME280;45368;55.002;-1.592;2023-07-13T12:12:53;100519.38;;;19.69;35.82
59545;BME280;45368;55.002;-1.592;2023-07-13T12:15:22;100520.58;;;19.28;36.03
59545;BME280;45368;55.002;-1.592;2023-07-13T12:17:50;100512.77;;;18.90;36.53
59545;BME280;45368;55.002;-1.592;2023-07-13T12:20:21;100519.38;;;19.14;39.31
59545;BME280;45368;55.002;-1.592;2023-07-13T12:22:51;100508.65;;;19.26;36.22
59545;BME280;45368;55.002;-1.592;2023-07-13T12:25:20;100509.03;;;18.98;37.44
59545;BME280;45368;55.002;-1.592;2023-07-13T12:27:49;100511.74;;;19.30;38.62
59545;BME280;45368;55.002;-1.592;2023-07-13T12:30:25;100506.78;;;19.29;37.54
59545;BME280;45368;55.002;-1.592;2023-07-13T12:32:56;100503.17;;;19.45;35.58
59545;BME280;45368;55.002;-1.592;2023-07-13T12:35:24;100513.34;;;19.88;35.84
59545;BME280;45368;55.002;-1.592;2023-07-13T12:37:52;100514.68;;;18.47;37.89
59545;BME280;45368;55.002;-1.592;2023-07-13T12:40:32;100510.19;;;19.00;37.12
59545;BME280;45368;55.002;-1.592;2023-07-13T12:43:01;100516.86;;;18.52;37.56
59545;BME280;45368;55.002;-1.592;2023-07-13T12:45:29;100508.35;;;19.31;37.10
59545;BME280;45368;55.002;-1.592;2023-07-13T12:47:58;100494.92;;;19.75;36.87
59545;BME280;45368;55.002;-1.592;2023-07-13T12:50:34;100500.80;;;19.58;36.65